Biggsville, Illinois
Current Conditions -  °F | °C
As of 8:53 PM on Thursday 27 Nov 2014 (Local Time) from KBRL Reporting Station
Clear Clear  
Wind Chill: 10°   Ceiling: Unl
Heat Index: 10°   Visibility: 10mi
Dew Point:   Wind: 0mph
Humidity: 76%   Direction: NA
Pressure: 30.43"   Gusts: NA
Location:  40.85°N, 90.86°W
Report Text: KBRL 280253Z AUTO 00000KT 10SM CLR M12/M16 A3043 RMK AO2 SLP318 T11221156 55013 PWINO FZRANO $
Loading
Personal Weather Stations






























Interactive Weather Map New forecast layout! Learn more

10-Day Weather Forecast

Advertisements
Track Severe Weather on mobile